createdAt,value
2023-08-22T00:04:01.709Z,1.50
2023-08-22T00:09:04.715Z,2.40
2023-08-22T00:14:07.046Z,1.98
2023-08-22T00:19:08.823Z,1.98
2023-08-22T00:49:17.293Z,1.63
2023-08-22T00:54:19.639Z,1.85
2023-08-22T00:59:21.132Z,1.40
2023-08-22T01:04:22.778Z,1.52
2023-08-22T01:10:02.937Z,1.70
2023-08-22T01:15:13.608Z,1.30
2023-08-22T01:20:15.540Z,1.48
2023-08-22T01:25:17.172Z,1.30
2023-08-22T01:30:31.502Z,1.40
2023-08-22T01:35:33.154Z,1.15
2023-08-22T01:40:34.686Z,1.15
2023-08-22T01:45:36.219Z,1.00
2023-08-22T01:50:37.731Z,1.20
2023-08-22T01:55:39.242Z,1.20
2023-08-22T02:00:40.798Z,1.25
2023-08-22T02:05:42.791Z,1.10
2023-08-22T02:10:44.295Z,1.10
2023-08-22T02:15:45.852Z,1.00
2023-08-22T02:20:50.787Z,1.33
2023-08-22T02:25:52.311Z,1.05
2023-08-22T02:30:57.399Z,1.15
2023-08-22T02:35:59.005Z,1.20
2023-08-22T02:41:00.707Z,1.20
2023-08-22T02:46:02.291Z,0.90
2023-08-22T02:51:05.394Z,1.10
2023-08-22T02:56:07.427Z,1.30
2023-08-22T03:01:09.092Z,0.93
2023-08-22T03:06:10.640Z,1.13
2023-08-22T03:11:12.227Z,1.17
2023-08-22T03:16:13.822Z,1.50
2023-08-22T03:21:15.610Z,1.35
2023-08-22T03:26:17.161Z,1.25
2023-08-22T03:31:18.783Z,1.00
2023-08-22T03:36:21.031Z,1.52
2023-08-22T03:41:22.544Z,1.00
2023-08-22T03:46:37.227Z,0.80
2023-08-22T03:51:40.677Z,1.05
2023-08-22T03:56:42.283Z,1.13
2023-08-22T04:01:43.809Z,1.15
2023-08-22T04:06:45.378Z,1.00
2023-08-22T04:11:46.893Z,1.10
2023-08-22T04:16:48.456Z,1.42
2023-08-22T04:21:50.034Z,1.10
2023-08-22T04:26:52.740Z,1.02
2023-08-22T04:31:54.853Z,1.35
2023-08-22T04:36:56.393Z,1.20
2023-08-22T04:41:57.903Z,1.30
2023-08-22T04:46:59.404Z,1.13
2023-08-22T04:52:00.921Z,1.27
2023-08-22T04:57:02.433Z,1.23
2023-08-22T05:02:04.020Z,0.93
2023-08-22T05:07:05.628Z,1.55
2023-08-22T05:12:07.402Z,1.58
2023-08-22T05:17:08.986Z,1.02
2023-08-22T05:22:11.014Z,0.95
2023-08-22T05:32:13.914Z,0.88
2023-08-22T05:37:15.432Z,1.10
2023-08-22T05:42:16.939Z,1.05
2023-08-22T05:47:18.476Z,1.00
2023-08-22T05:52:20.481Z,1.25
2023-08-22T05:57:23.826Z,1.35
2023-08-22T06:02:25.349Z,1.10
2023-08-22T06:07:27.254Z,1.10
2023-08-22T06:32:34.736Z,0.85
2023-08-22T06:37:36.393Z,0.93
2023-08-22T06:42:37.930Z,1.20
2023-08-22T06:47:40.163Z,1.52
2023-08-22T06:52:41.990Z,0.90
2023-08-22T06:57:43.557Z,0.98
2023-08-22T07:02:46.102Z,1.30
2023-08-22T07:07:47.647Z,1.00
2023-08-22T07:12:49.331Z,1.52
2023-08-22T07:17:51.060Z,1.00
2023-08-22T07:27:54.173Z,0.93
2023-08-22T07:32:55.772Z,0.90
2023-08-22T07:37:57.308Z,0.88
2023-08-22T07:43:00.181Z,0.88
2023-08-22T07:48:01.959Z,0.82
2023-08-22T07:53:05.697Z,1.20
2023-08-22T07:58:07.286Z,1.50
2023-08-22T08:08:10.292Z,1.60
2023-08-22T08:13:11.928Z,1.58
2023-08-22T08:23:16.167Z,2.03
2023-08-22T08:28:17.710Z,1.70
2023-08-22T08:38:20.930Z,2.30
2023-08-22T08:43:22.885Z,2.70
2023-08-22T08:48:24.406Z,2.47
2023-08-22T08:53:26.281Z,2.95
2023-08-22T08:58:28.271Z,2.88
2023-08-22T09:03:30.255Z,2.92
2023-08-22T09:08:31.843Z,5.25
2023-08-22T09:13:54.175Z,5.10
2023-08-22T09:19:00.197Z,4.05
2023-08-22T09:24:10.806Z,3.63
2023-08-22T09:29:12.788Z,4.13
2023-08-22T09:34:15.775Z,5.75
2023-08-22T09:39:17.679Z,4.47
2023-08-22T09:44:20.846Z,3.88
2023-08-22T09:49:22.596Z,3.88
2023-08-22T09:54:24.160Z,3.85
2023-08-22T09:59:25.721Z,4.38
2023-08-22T10:09:28.773Z,2.78
2023-08-22T10:19:32.522Z,4.70
2023-08-22T10:24:34.269Z,4.97
2023-08-22T10:29:46.281Z,5.30
2023-08-22T10:34:47.952Z,5.65
2023-08-22T10:39:49.902Z,5.90
2023-08-22T10:44:56.997Z,5.93
2023-08-22T10:50:14.992Z,4.50
2023-08-22T10:55:18.469Z,5.03
2023-08-22T11:00:22.956Z,4.15
2023-08-22T11:05:24.685Z,4.93
2023-08-22T11:10:26.406Z,3.97
2023-08-22T11:15:28.056Z,5.55
2023-08-22T11:20:29.553Z,3.53
2023-08-22T11:25:31.068Z,3.45
2023-08-22T11:30:32.605Z,3.75
2023-08-22T11:35:34.106Z,3.70
2023-08-22T11:40:35.605Z,3.20
2023-08-22T11:45:49.674Z,3.03
2023-08-22T11:50:51.186Z,3.50
2023-08-22T11:55:56.571Z,2.80
2023-08-22T12:00:58.237Z,2.42
2023-08-22T12:05:59.756Z,2.50
2023-08-22T12:11:02.455Z,2.58
2023-08-22T12:16:04.049Z,2.20
2023-08-22T12:21:05.604Z,2.67
2023-08-22T12:26:07.120Z,2.30
2023-08-22T12:31:08.790Z,2.55
2023-08-22T12:36:10.375Z,1.92
2023-08-22T12:41:12.995Z,2.30
2023-08-22T12:46:14.551Z,2.10
2023-08-22T12:51:16.099Z,2.35
2023-08-22T12:56:17.909Z,2.80
2023-08-22T13:01:19.454Z,2.40
2023-08-22T13:06:20.991Z,2.45
2023-08-22T13:11:22.509Z,2.15
2023-08-22T13:16:24.058Z,2.50
2023-08-22T13:21:25.611Z,2.50
2023-08-22T13:26:27.216Z,3.00
2023-08-22T13:31:28.827Z,3.20
2023-08-22T13:36:31.398Z,2.50
2023-08-22T13:41:32.895Z,3.30
2023-08-22T13:46:34.463Z,3.70
2023-08-22T13:51:36.080Z,3.60
2023-08-22T13:56:37.592Z,3.63
2023-08-22T14:01:39.216Z,3.40
2023-08-22T14:06:40.797Z,3.70
2023-08-22T14:11:42.306Z,3.70
2023-08-22T14:16:43.814Z,5.18
2023-08-22T14:21:48.501Z,4.18
2023-08-22T14:26:50.462Z,4.50
2023-08-22T14:31:52.039Z,5.47
2023-08-22T14:36:53.572Z,4.47
2023-08-22T14:41:55.090Z,4.63
2023-08-22T14:46:56.644Z,4.05
2023-08-22T14:51:58.540Z,5.35
2023-08-22T14:57:00.055Z,5.03
2023-08-22T15:02:01.572Z,5.18
2023-08-22T15:07:03.544Z,5.10
2023-08-22T15:12:06.477Z,3.60
2023-08-22T15:17:08.077Z,3.83
2023-08-22T15:22:09.610Z,4.60
2023-08-22T15:27:12.360Z,5.22
2023-08-22T15:32:13.999Z,5.18
2023-08-22T15:37:15.515Z,4.60
2023-08-22T15:42:17.442Z,4.40
2023-08-22T15:47:18.980Z,4.25
2023-08-22T15:52:31.050Z,3.20
2023-08-22T15:57:40.792Z,3.33
2023-08-22T16:02:42.330Z,3.50
2023-08-22T16:07:44.231Z,3.08
2023-08-22T16:12:45.979Z,2.97
2023-08-22T16:17:47.765Z,3.22
2023-08-22T16:22:49.475Z,3.80
2023-08-22T16:27:51.377Z,2.80
2023-08-22T16:32:53.183Z,3.78
2023-08-22T16:37:54.737Z,4.65
2023-08-22T16:47:57.836Z,4.20
2023-08-22T16:52:59.479Z,4.55
2023-08-22T16:58:01.128Z,3.25
2023-08-22T17:03:02.962Z,3.38
2023-08-22T17:08:04.711Z,3.53
2023-08-22T17:13:06.216Z,3.75
2023-08-22T17:23:09.762Z,4.10
2023-08-22T17:28:11.302Z,4.50
2023-08-22T17:38:14.771Z,4.45
2023-08-22T17:43:16.395Z,5.25
2023-08-22T17:48:17.946Z,4.65
2023-08-22T17:53:20.795Z,4.50
2023-08-22T17:58:22.415Z,4.22
2023-08-22T18:08:25.735Z,4.28
2023-08-22T18:18:29.449Z,4.45
2023-08-22T18:23:31.358Z,4.68
2023-08-22T18:28:33.511Z,4.82
2023-08-22T18:33:35.466Z,4.10
2023-08-22T18:38:36.969Z,4.20
2023-08-22T18:43:38.485Z,4.70
2023-08-22T18:48:41.022Z,3.58
2023-08-22T18:53:42.588Z,3.58
2023-08-22T18:58:44.128Z,3.00
2023-08-22T19:03:45.691Z,2.55
2023-08-22T19:08:47.280Z,3.08
2023-08-22T19:13:49.632Z,2.58
2023-08-22T19:18:51.165Z,2.40
2023-08-22T19:23:52.709Z,2.33
2023-08-22T19:28:54.234Z,2.42
2023-08-22T19:33:55.893Z,2.67
2023-08-22T19:38:57.475Z,2.50
2023-08-22T19:43:59.005Z,2.47
2023-08-22T19:49:00.682Z,2.80
2023-08-22T19:54:02.337Z,2.78
2023-08-22T19:59:03.841Z,2.08
2023-08-22T20:04:05.369Z,2.33
2023-08-22T20:09:13.727Z,2.00
2023-08-22T20:14:15.322Z,2.40
2023-08-22T20:19:17.835Z,2.30
2023-08-22T20:24:19.384Z,2.38
2023-08-22T20:29:20.884Z,2.28
2023-08-22T20:34:22.414Z,2.20
2023-08-22T20:39:28.214Z,1.92
2023-08-22T20:44:29.716Z,2.53
2023-08-22T20:49:31.258Z,2.72
2023-08-22T20:54:33.644Z,3.08
2023-08-22T20:59:35.151Z,2.10
2023-08-22T21:04:36.658Z,2.50
2023-08-22T21:09:38.274Z,2.17
2023-08-22T21:14:39.833Z,2.40
2023-08-22T21:19:41.341Z,2.30
2023-08-22T21:24:43.737Z,1.92
2023-08-22T21:29:45.471Z,2.03
2023-08-22T21:34:47.416Z,2.03
2023-08-22T21:39:49.350Z,2.00
2023-08-22T21:44:50.857Z,1.73
2023-08-22T21:49:55.569Z,1.95
2023-08-22T21:54:57.089Z,1.92
2023-08-22T21:59:58.598Z,2.35
2023-08-22T22:05:00.118Z,1.90
2023-08-22T22:10:01.677Z,2.05
2023-08-22T22:15:04.010Z,1.90
2023-08-22T22:20:06.001Z,1.80
2023-08-22T22:25:07.952Z,2.10
2023-08-22T22:35:11.314Z,1.85
2023-08-22T22:40:12.833Z,1.77
2023-08-22T22:45:14.353Z,1.60
2023-08-22T22:50:15.906Z,1.42
2023-08-22T22:55:17.465Z,1.63
2023-08-22T23:00:18.998Z,1.95
2023-08-22T23:05:23.526Z,1.85
2023-08-22T23:10:25.103Z,2.33
2023-08-22T23:15:27.620Z,1.65
2023-08-22T23:20:29.155Z,1.75
2023-08-22T23:25:30.660Z,1.80
2023-08-22T23:30:32.648Z,1.55
2023-08-22T23:35:34.190Z,1.50
2023-08-22T23:40:35.979Z,1.77
2023-08-22T23:45:37.629Z,1.70
2023-08-22T23:50:39.138Z,1.95
2023-08-22T23:55:40.690Z,1.80
